Time;durP1;ratioP1;P1;durP2;ratioP2;P2;SDS_P1;SDS_P2;PMS_P1;PMS_P2;Temp;Humidity;BMP_temperature;BMP_pressure;BME280_temperature;BME280_humidity;BME280_pressure;Samples;Min_cycle;Max_cycle;Signal;HPM_P1;HPM_P2
2023/01/12 00:00:35;;;;;;;11.90;3.55;;;8.70;99.90;;;;;;5112555;27;20121;-82
2023/01/12 00:03:01;;;;;;;14.85;4.38;;;8.70;99.90;;;;;;5130825;27;20083;-82
2023/01/12 00:05:27;;;;;;;11.98;3.92;;;8.70;99.90;;;;;;5098519;28;20035;-82
2023/01/12 00:07:52;;;;;;;15.65;4.28;;;8.70;99.90;;;;;;5093423;27;20103;-83
2023/01/12 00:10:18;;;;;;;13.60;4.38;;;8.80;99.90;;;;;;5111710;27;20038;-81
2023/01/12 00:12:44;;;;;;;16.10;5.43;;;8.80;99.90;;;;;;5111725;27;20070;-82
2023/01/12 00:15:09;;;;;;;17.40;4.40;;;8.80;99.90;;;;;;5112999;27;20358;-81
2023/01/12 00:17:35;;;;;;;14.65;4.70;;;8.80;99.90;;;;;;5108084;28;20483;-83
2023/01/12 00:20:01;;;;;;;17.48;5.45;;;8.80;99.90;;;;;;5091808;28;20043;-80
2023/01/12 00:22:26;;;;;;;15.52;4.82;;;8.80;99.90;;;;;;5126858;27;20487;-82
2023/01/12 00:24:53;;;;;;;20.83;5.85;;;8.80;99.90;;;;;;5092032;28;20534;-82
2023/01/12 00:27:20;;;;;;;21.38;5.82;;;8.70;99.90;;;;;;5091981;28;20081;-82
2023/01/12 00:29:47;;;;;;;19.10;5.22;;;8.60;99.90;;;;;;5092741;28;20401;-82
2023/01/12 00:32:15;;;;;;;17.17;5.07;;;8.50;99.90;;;;;;5105079;27;20077;-82
2023/01/12 00:34:41;;;;;;;18.20;5.38;;;8.50;99.90;;;;;;5134309;27;20036;-81
2023/01/12 00:37:07;;;;;;;18.77;5.65;;;8.50;99.90;;;;;;5091772;28;20172;-82
2023/01/12 00:39:35;;;;;;;17.27;5.15;;;8.50;99.90;;;;;;5123021;28;20035;-81
2023/01/12 00:47:30;;;;;;;17.35;5.32;;;8.40;99.90;;;;;;5129862;28;20102;-82
2023/01/12 00:49:56;;;;;;;18.70;5.28;;;8.40;99.90;;;;;;5110806;28;20436;-82
2023/01/12 00:52:21;;;;;;;15.73;4.68;;;8.40;99.90;;;;;;5112764;28;20072;-82
2023/01/12 00:54:47;;;;;;;18.08;5.05;;;8.40;99.90;;;;;;5094617;28;20035;-82
2023/01/12 00:57:13;;;;;;;18.92;5.05;;;8.40;99.90;;;;;;5092058;28;20402;-81
2023/01/12 00:59:40;;;;;;;16.88;5.00;;;8.60;99.90;;;;;;5112840;28;20102;-82
2023/01/12 01:02:06;;;;;;;19.17;4.65;;;8.50;99.90;;;;;;5094917;28;20095;-82
2023/01/12 01:04:33;;;;;;;16.98;5.07;;;8.60;99.90;;;;;;5106615;28;20476;-82
2023/01/12 01:07:00;;;;;;;18.73;4.63;;;8.60;99.90;;;;;;5129273;28;20031;-82
2023/01/12 01:09:25;;;;;;;15.95;4.88;;;8.60;99.90;;;;;;5114407;28;20377;-83
2023/01/12 01:11:51;;;;;;;16.85;3.95;;;8.60;99.90;;;;;;5095533;28;20034;-83
2023/01/12 01:14:17;;;;;;;21.30;4.85;;;8.60;99.90;;;;;;5130675;28;20409;-82
2023/01/12 01:16:42;;;;;;;16.42;4.13;;;8.60;99.90;;;;;;5111254;28;20039;-83
2023/01/12 01:19:08;;;;;;;18.45;5.13;;;8.70;99.90;;;;;;5130315;28;20373;-83
2023/01/12 01:21:34;;;;;;;15.15;4.05;;;8.60;99.90;;;;;;5112466;28;20039;-83
2023/01/12 01:24:00;;;;;;;17.00;4.65;;;8.70;99.90;;;;;;5146045;27;20054;-83
2023/01/12 01:26:26;;;;;;;20.17;5.30;;;8.70;99.90;;;;;;5132987;27;20081;-83
2023/01/12 01:28:52;;;;;;;19.30;4.55;;;8.70;99.90;;;;;;5134274;27;20540;-83
2023/01/12 01:31:20;;;;;;;18.85;5.25;;;8.70;99.90;;;;;;5124607;27;20039;-83
2023/01/12 01:33:47;;;;;;;16.98;4.45;;;8.60;99.90;;;;;;5078493;28;20047;-83
2023/01/12 01:36:14;;;;;;;18.73;5.78;;;8.70;99.90;;;;;;5095693;28;20044;-83
2023/01/12 01:38:41;;;;;;;16.85;5.40;;;8.70;99.90;;;;;;5095524;28;20047;-83
2023/01/12 01:41:13;;;;;;;18.42;5.20;;;8.70;99.90;;;;;;5094649;27;20109;-83
2023/01/12 01:43:54;;;;;;;16.40;4.97;;;8.80;99.90;;;;;;5095599;28;20044;-83
2023/01/12 01:46:49;;;;;;;15.25;4.80;;;8.70;99.90;;;;;;5121931;27;20043;-83
2023/01/12 01:49:25;;;;;;;18.52;5.28;;;8.80;99.90;;;;;;5107824;27;20044;-83
2023/01/12 01:51:59;;;;;;;19.70;4.85;;;8.80;99.90;;;;;;5094931;28;20088;-83
2023/01/12 01:54:26;;;;;;;17.38;4.90;;;8.70;99.90;;;;;;5128057;27;20074;-83
2023/01/12 01:56:54;;;;;;;19.42;5.38;;;8.70;99.90;;;;;;5109095;27;20074;-81
2023/01/12 01:59:25;;;;;;;19.60;5.32;;;8.70;99.90;;;;;;5115338;27;20095;-83
2023/01/12 02:01:51;;;;;;;17.77;4.78;;;8.70;99.90;;;;;;5099988;28;20039;-83
2023/01/12 02:04:17;;;;;;;17.77;5.22;;;8.70;99.90;;;;;;5128925;27;20031;-83
2023/01/12 02:06:43;;;;;;;19.90;5.10;;;8.70;99.90;;;;;;5118004;27;20091;-83
2023/01/12 02:09:14;;;;;;;17.73;4.93;;;8.70;99.90;;;;;;5123182;27;20106;-83
2023/01/12 02:17:25;;;;;;;18.67;5.00;;;8.70;99.90;;;;;;5114877;27;20043;-83
2023/01/12 02:20:06;;;;;;;16.42;4.75;;;8.80;99.90;;;;;;5114869;27;20035;-84
2023/01/12 02:22:57;;;;;;;17.95;5.45;;;8.80;99.90;;;;;;5116514;27;20039;-81
2023/01/12 02:26:19;;;;;;;21.02;6.32;;;8.80;99.90;;;;;;5111599;28;20097;-81
2023/01/12 02:29:19;;;;;;;19.92;6.10;;;8.80;99.90;;;;;;5113074;27;20130;-82
2023/01/12 02:32:05;;;;;;;18.13;5.75;;;8.80;99.90;;;;;;5113693;27;20039;-82
2023/01/12 02:34:56;;;;;;;18.77;6.05;;;8.80;99.90;;;;;;5115019;27;20039;-82
2023/01/12 02:37:33;;;;;;;18.70;5.63;;;8.80;99.90;;;;;;5112303;28;20039;-82
2023/01/12 02:40:06;;;;;;;20.92;6.25;;;8.80;99.90;;;;;;5093781;28;20608;-82
2023/01/12 02:42:41;;;;;;;20.25;6.10;;;8.80;99.90;;;;;;5094393;28;20050;-82
2023/01/12 02:45:28;;;;;;;19.48;5.80;;;8.80;99.90;;;;;;5093831;28;20466;-82
2023/01/12 02:48:24;;;;;;;18.88;5.68;;;8.80;99.90;;;;;;5113162;27;20487;-82
2023/01/12 02:51:28;;;;;;;18.48;5.85;;;8.80;99.90;;;;;;5111624;27;20047;-82
2023/01/12 02:54:00;;;;;;;19.95;5.57;;;8.80;99.90;;;;;;5132198;27;20074;-82
2023/01/12 02:56:47;;;;;;;20.70;6.10;;;8.80;99.90;;;;;;5132819;27;20039;-82
2023/01/12 02:59:19;;;;;;;19.15;5.72;;;8.80;99.90;;;;;;5114019;27;20050;-82
2023/01/12 03:01:50;;;;;;;24.45;6.63;;;8.80;99.90;;;;;;5102935;28;20048;-83
2023/01/12 03:04:17;;;;;;;21.00;5.90;;;8.80;99.90;;;;;;5124424;27;20042;-83
2023/01/12 03:06:46;;;;;;;18.67;5.97;;;8.70;99.90;;;;;;5132300;27;20119;-84
2023/01/12 03:09:15;;;;;;;19.00;5.55;;;8.80;99.90;;;;;;5113668;27;20038;-83
2023/01/12 03:11:42;;;;;;;18.85;5.97;;;8.80;99.90;;;;;;5132870;27;20398;-83
2023/01/12 03:14:09;;;;;;;17.08;5.88;;;8.80;99.90;;;;;;5113588;27;20046;-83
2023/01/12 03:16:38;;;;;;;20.88;6.15;;;8.80;99.90;;;;;;5114204;27;20046;-83
2023/01/12 03:19:08;;;;;;;19.58;5.82;;;8.80;99.90;;;;;;5127878;27;20042;-83
2023/01/12 03:21:53;;;;;;;19.20;5.88;;;8.80;99.90;;;;;;5113628;27;20039;-83
2023/01/12 03:24:27;;;;;;;16.92;6.47;;;8.80;99.90;;;;;;5113679;27;20043;-82
2023/01/12 03:27:00;;;;;;;19.38;6.53;;;8.80;99.90;;;;;;5096596;27;20035;-83
2023/01/12 03:29:41;;;;;;;16.48;6.32;;;8.80;99.90;;;;;;5148642;27;20118;-83
2023/01/12 03:32:07;;;;;;;13.73;6.05;;;8.90;99.90;;;;;;5130833;27;20035;-82
2023/01/12 03:34:34;;;;;;;17.75;6.38;;;8.90;99.90;;;;;;5094643;28;20050;-83
2023/01/12 03:37:24;;;;;;;18.92;6.13;;;8.90;99.90;;;;;;5092435;28;20043;-81
2023/01/12 03:39:58;;;;;;;17.73;6.18;;;8.90;99.90;;;;;;5126353;27;20406;-83
2023/01/12 03:42:42;;;;;;;15.27;4.95;;;8.90;99.90;;;;;;5113637;27;20087;-82
2023/01/12 03:45:26;;;;;;;17.45;5.82;;;8.90;99.90;;;;;;5112948;27;20043;-83
2023/01/12 03:47:58;;;;;;;13.98;5.63;;;8.90;99.90;;;;;;5109766;27;20403;-83
2023/01/12 03:50:30;;;;;;;14.95;5.85;;;8.90;99.90;;;;;;5092675;28;20063;-83
2023/01/12 03:52:58;;;;;;;14.73;5.65;;;8.90;99.90;;;;;;5111033;28;20425;-83
2023/01/12 03:55:28;;;;;;;12.65;5.43;;;8.90;99.90;;;;;;5118254;27;20092;-83
2023/01/12 03:57:55;;;;;;;17.38;5.75;;;8.90;99.90;;;;;;5103416;28;20039;-83
2023/01/12 04:00:23;;;;;;;15.35;5.20;;;8.90;99.90;;;;;;5092883;28;20103;-83
2023/01/12 04:02:49;;;;;;;12.15;5.10;;;8.90;99.90;;;;;;5126365;27;20039;-83
2023/01/12 04:05:15;;;;;;;15.75;4.93;;;8.90;99.90;;;;;;5110413;28;20383;-83
2023/01/12 04:07:41;;;;;;;13.43;5.53;;;8.90;99.90;;;;;;5101240;27;20043;-83
2023/01/12 04:10:07;;;;;;;11.57;5.45;;;8.90;99.90;;;;;;5112481;27;20126;-83
2023/01/12 04:12:33;;;;;;;13.30;5.53;;;8.90;99.90;;;;;;5146420;27;20138;-83
2023/01/12 04:14:58;;;;;;;13.38;5.93;;;8.90;99.90;;;;;;5129889;27;20122;-83
2023/01/12 04:17:24;;;;;;;14.18;6.00;;;8.90;99.90;;;;;;5111134;27;20035;-83
2023/01/12 04:19:53;;;;;;;13.38;6.00;;;8.90;99.90;;;;;;5112253;27;20543;-84
2023/01/12 04:25:04;;;;;;;14.25;6.03;;;8.90;99.90;;;;;;5111285;28;20046;-84
2023/01/12 04:27:29;;;;;;;12.60;5.13;;;8.90;99.90;;;;;;5109799;28;20046;-83
2023/01/12 04:29:55;;;;;;;11.32;4.90;;;8.90;99.90;;;;;;5092100;28;20122;-83
2023/01/12 04:32:21;;;;;;;12.07;4.90;;;8.90;99.90;;;;;;5092490;28;20032;-83
2023/01/12 04:34:47;;;;;;;11.68;4.97;;;8.90;99.90;;;;;;5091769;28;20044;-83
2023/01/12 04:37:13;;;;;;;15.07;5.43;;;8.90;99.90;;;;;;5127654;27;20031;-83
2023/01/12 04:39:38;;;;;;;11.20;4.60;;;8.90;99.90;;;;;;5113098;28;20482;-84
2023/01/12 04:42:04;;;;;;;12.38;4.63;;;9.00;99.90;;;;;;5112421;28;20505;-83
2023/01/12 04:44:31;;;;;;;12.13;5.30;;;8.90;99.90;;;;;;5102960;28;20445;-84
2023/01/12 04:46:56;;;;;;;9.65;4.43;;;8.90;99.90;;;;;;5099262;28;20039;-83
2023/01/12 04:49:22;;;;;;;9.48;3.72;;;8.90;99.90;;;;;;5112163;28;20035;-83
2023/01/12 04:51:47;;;;;;;8.75;3.70;;;8.90;99.90;;;;;;5111474;28;20130;-84
2023/01/12 04:54:13;;;;;;;8.15;3.55;;;8.90;99.90;;;;;;5111758;28;20039;-83
2023/01/12 04:56:39;;;;;;;9.77;3.90;;;8.90;99.90;;;;;;5092606;28;20043;-84
2023/01/12 04:59:07;;;;;;;9.68;3.63;;;8.90;99.90;;;;;;5113128;27;20495;-82
2023/01/12 05:01:35;;;;;;;8.73;3.30;;;8.90;99.90;;;;;;5116187;27;20042;-84
2023/01/12 05:04:01;;;;;;;9.73;3.25;;;8.80;99.90;;;;;;5113863;27;20035;-83
2023/01/12 05:06:27;;;;;;;10.68;3.30;;;8.80;99.90;;;;;;5101475;27;20054;-83
2023/01/12 05:11:38;;;;;;;7.65;2.30;;;8.70;99.90;;;;;;5096256;28;20047;-84
2023/01/12 05:14:04;;;;;;;12.43;2.75;;;8.70;99.90;;;;;;5096194;28;20043;-85
2023/01/12 05:16:30;;;;;;;9.38;2.70;;;8.70;99.90;;;;;;5130878;27;20043;-82
2023/01/12 05:18:56;;;;;;;7.65;2.38;;;8.70;99.90;;;;;;5134400;27;20041;-83
2023/01/12 05:21:23;;;;;;;8.57;3.00;;;8.60;99.90;;;;;;5114263;27;20049;-84
2023/01/12 05:23:51;;;;;;;6.70;2.30;;;8.60;99.90;;;;;;5133437;27;20539;-84
2023/01/12 05:26:17;;;;;;;8.27;2.58;;;8.60;99.90;;;;;;5133374;27;20039;-83
2023/01/12 05:28:43;;;;;;;7.75;2.20;;;8.60;99.90;;;;;;5116320;27;20037;-82
2023/01/12 05:31:12;;;;;;;7.40;2.25;;;8.60;99.90;;;;;;5133808;27;20126;-82
2023/01/12 05:33:40;;;;;;;7.32;2.13;;;8.60;99.90;;;;;;5134601;27;20035;-84
2023/01/12 05:36:08;;;;;;;10.60;2.45;;;8.60;99.90;;;;;;5150097;27;20081;-83
2023/01/12 05:38:34;;;;;;;7.07;2.15;;;8.60;99.90;;;;;;5115541;27;20449;-82
2023/01/12 05:41:01;;;;;;;7.20;2.20;;;8.60;99.90;;;;;;5150043;27;20031;-82
2023/01/12 05:46:12;;;;;;;7.47;1.92;;;8.60;99.90;;;;;;5132965;27;20727;-83
2023/01/12 05:48:37;;;;;;;8.40;2.08;;;8.60;99.90;;;;;;5116244;27;20041;-83
2023/01/12 05:51:05;;;;;;;8.07;2.00;;;8.60;99.90;;;;;;5114068;27;20571;-82
2023/01/12 05:53:30;;;;;;;8.38;1.92;;;8.70;99.90;;;;;;5134246;27;20042;-82
2023/01/12 05:55:57;;;;;;;7.55;1.80;;;8.70;99.90;;;;;;5133971;27;20065;-82
2023/01/12 05:58:23;;;;;;;8.55;2.05;;;8.70;99.90;;;;;;5113381;27;20035;-82
2023/01/12 06:00:49;;;;;;;7.85;2.20;;;8.70;99.90;;;;;;5110562;27;20039;-82
2023/01/12 06:03:15;;;;;;;8.52;2.10;;;8.70;99.90;;;;;;5112261;27;20023;-81
2023/01/12 06:05:41;;;;;;;6.63;2.10;;;8.70;99.90;;;;;;5130103;27;20039;-82
2023/01/12 06:08:07;;;;;;;7.63;1.90;;;8.70;99.90;;;;;;5128480;27;20058;-84
2023/01/12 06:10:38;;;;;;;7.35;2.13;;;8.80;99.90;;;;;;5110915;27;20095;-86
2023/01/12 06:15:48;;;;;;;7.15;2.25;;;8.90;99.90;;;;;;5149464;27;19919;-83
2023/01/12 06:18:13;;;;;;;8.48;2.85;;;8.90;99.90;;;;;;5134948;27;20098;-84
2023/01/12 06:20:39;;;;;;;8.43;2.40;;;8.90;99.90;;;;;;5112200;27;20038;-85
2023/01/12 06:23:04;;;;;;;5.97;2.30;;;8.90;99.90;;;;;;5112277;27;20051;-84
2023/01/12 06:25:31;;;;;;;7.97;2.17;;;8.90;99.90;;;;;;5109883;27;20082;-83
2023/01/12 06:27:56;;;;;;;8.70;2.10;;;8.90;99.90;;;;;;5110860;27;20098;-86
2023/01/12 06:30:22;;;;;;;5.65;1.70;;;8.90;99.90;;;;;;5103959;27;20201;-83
2023/01/12 06:32:48;;;;;;;6.97;2.28;;;8.90;99.90;;;;;;5122843;27;20036;-82
2023/01/12 06:35:14;;;;;;;7.13;2.20;;;9.00;99.90;;;;;;5113258;27;20035;-81
2023/01/12 06:37:39;;;;;;;6.50;1.90;;;9.00;99.90;;;;;;5132978;27;20039;-81
2023/01/12 06:40:06;;;;;;;5.43;2.00;;;9.00;99.90;;;;;;5109988;27;20126;-83
2023/01/12 06:42:32;;;;;;;5.25;1.80;;;9.00;99.90;;;;;;5114413;27;20042;-81
2023/01/12 06:44:59;;;;;;;6.78;2.00;;;9.10;99.90;;;;;;5111195;27;20043;-82
2023/01/12 06:47:26;;;;;;;6.30;2.22;;;9.10;99.90;;;;;;5132657;27;20039;-83
2023/01/12 06:49:52;;;;;;;6.60;1.88;;;9.10;99.90;;;;;;5105466;28;20155;-82
2023/01/12 06:52:24;;;;;;;4.38;1.70;;;9.20;99.90;;;;;;5097646;27;20031;-82
2023/01/12 06:54:50;;;;;;;5.50;1.80;;;9.20;99.90;;;;;;5121669;27;20067;-80
2023/01/12 06:57:16;;;;;;;6.65;1.70;;;9.20;99.90;;;;;;5125860;27;20039;-81
2023/01/12 06:59:41;;;;;;;4.00;1.40;;;9.30;99.90;;;;;;5100738;27;20043;-81
2023/01/12 07:02:14;;;;;;;4.72;1.77;;;9.30;99.90;;;;;;5109149;27;20053;-82
2023/01/12 07:04:40;;;;;;;5.28;1.77;;;9.40;99.90;;;;;;5131878;27;20043;-83
2023/01/12 07:07:07;;;;;;;4.03;1.70;;;9.40;99.90;;;;;;5113318;27;20043;-81
2023/01/12 07:09:34;;;;;;;5.95;1.80;;;9.40;99.90;;;;;;5128873;27;20429;-82
2023/01/12 07:12:00;;;;;;;3.80;1.52;;;9.50;99.90;;;;;;5131281;27;20075;-81
2023/01/12 07:14:25;;;;;;;5.15;1.70;;;9.50;99.90;;;;;;5127521;27;20039;-81
2023/01/12 07:16:51;;;;;;;5.50;1.95;;;9.50;99.90;;;;;;5121032;27;20034;-80
2023/01/12 07:19:17;;;;;;;5.05;2.00;;;9.50;99.90;;;;;;5143021;27;20440;-81
2023/01/12 07:21:43;;;;;;;4.50;1.90;;;9.60;99.90;;;;;;5108003;27;20036;-81
2023/01/12 07:24:09;;;;;;;5.35;1.77;;;9.60;99.90;;;;;;5128480;27;20054;-83
2023/01/12 07:26:35;;;;;;;4.85;1.90;;;9.60;99.90;;;;;;5127006;27;20106;-84
2023/01/12 07:29:01;;;;;;;5.22;2.00;;;9.60;99.90;;;;;;5121667;27;20445;-81
2023/01/12 07:31:27;;;;;;;4.72;2.20;;;9.60;99.90;;;;;;5113154;27;20511;-82
2023/01/12 07:33:53;;;;;;;3.75;2.15;;;9.70;99.90;;;;;;5111248;27;20070;-80
2023/01/12 07:36:19;;;;;;;5.25;2.45;;;9.70;99.90;;;;;;5130173;27;20043;-83
2023/01/12 07:38:45;;;;;;;5.55;2.30;;;9.70;99.90;;;;;;5119301;27;20043;-81
2023/01/12 07:43:56;;;;;;;6.53;2.92;;;9.70;99.90;;;;;;5114193;27;20035;-82
2023/01/12 07:46:21;;;;;;;4.82;2.50;;;9.70;99.90;;;;;;5113418;27;20042;-82
2023/01/12 07:48:47;;;;;;;6.10;3.25;;;9.80;99.90;;;;;;5130716;27;20035;-83
2023/01/12 07:51:13;;;;;;;6.45;3.28;;;9.80;99.90;;;;;;5110467;27;20062;-82
2023/01/12 07:53:38;;;;;;;7.10;3.35;;;9.90;99.90;;;;;;5092965;27;20380;-81
2023/01/12 07:56:04;;;;;;;5.97;3.00;;;9.90;99.90;;;;;;5107891;27;20511;-80
2023/01/12 07:58:30;;;;;;;6.35;3.20;;;9.90;99.90;;;;;;5131320;27;20035;-81
2023/01/12 08:00:59;;;;;;;7.55;3.45;;;9.90;99.90;;;;;;5113289;27;20039;-80
2023/01/12 08:03:26;;;;;;;6.50;3.28;;;9.80;99.90;;;;;;5109776;27;20043;-81
2023/01/12 08:05:53;;;;;;;7.55;3.53;;;9.80;99.90;;;;;;5092616;28;20043;-82
2023/01/12 08:08:18;;;;;;;8.25;3.38;;;9.90;99.90;;;;;;5092469;28;20067;-80
2023/01/12 08:10:47;;;;;;;9.45;4.10;;;9.90;99.90;;;;;;5115307;27;20122;-82
2023/01/12 08:13:13;;;;;;;6.72;3.33;;;9.90;99.90;;;;;;5101729;27;20188;-81
2023/01/12 08:15:43;;;;;;;6.85;3.45;;;10.00;99.90;;;;;;5105352;27;20054;-82
2023/01/12 08:18:17;;;;;;;9.32;3.95;;;10.00;99.90;;;;;;5123616;27;20042;-81
2023/01/12 08:20:43;;;;;;;9.63;3.85;;;10.10;99.90;;;;;;5105432;27;20049;-83
2023/01/12 08:23:33;;;;;;;8.25;4.28;;;10.10;99.90;;;;;;5109183;27;20100;-83
2023/01/12 08:26:03;;;;;;;9.75;4.05;;;10.10;99.90;;;;;;5111972;27;20039;-83
2023/01/12 08:28:39;;;;;;;10.85;4.10;;;10.20;99.90;;;;;;5112855;27;20069;-84
2023/01/12 08:31:08;;;;;;;11.63;4.07;;;10.30;99.90;;;;;;5144606;27;20437;-80
2023/01/12 08:33:36;;;;;;;12.70;4.68;;;10.30;99.90;;;;;;5112303;28;20061;-82
2023/01/12 08:36:04;;;;;;;10.43;3.95;;;10.30;99.90;;;;;;5110859;28;20491;-82
2023/01/12 08:38:30;;;;;;;10.15;4.43;;;10.30;99.90;;;;;;5092344;28;20106;-81
2023/01/12 08:46:24;;;;;;;12.10;4.68;;;10.50;99.90;;;;;;5129329;28;20043;-82
2023/01/12 08:48:49;;;;;;;13.68;5.40;;;10.50;99.90;;;;;;5112489;28;20045;-82
2023/01/12 08:51:15;;;;;;;14.20;4.82;;;10.50;99.90;;;;;;5112472;28;20121;-83
2023/01/12 08:53:41;;;;;;;18.02;5.00;;;10.50;99.90;;;;;;5094545;28;20476;-82
2023/01/12 08:56:07;;;;;;;18.63;5.85;;;10.60;99.90;;;;;;5109520;28;20028;-83
2023/01/12 08:58:32;;;;;;;16.67;5.00;;;10.60;99.90;;;;;;5112954;28;20037;-83
2023/01/12 09:01:09;;;;;;;20.70;4.85;;;10.70;99.90;;;;;;5128635;28;20110;-83
2023/01/12 09:03:35;;;;;;;20.15;4.72;;;10.80;99.90;;;;;;5110662;28;20027;-83
2023/01/12 09:06:19;;;;;;;20.83;5.25;;;10.80;99.90;;;;;;5126619;28;20090;-83
2023/01/12 09:08:46;;;;;;;18.60;5.25;;;10.80;99.90;;;;;;5112342;28;20035;-83
2023/01/12 09:11:14;;;;;;;22.13;6.28;;;10.90;99.90;;;;;;5111117;28;20386;-84
2023/01/12 09:13:40;;;;;;;20.65;5.18;;;10.80;99.90;;;;;;5109491;28;20122;-84
2023/01/12 09:16:08;;;;;;;25.55;6.30;;;10.80;99.90;;;;;;5111981;28;20080;-83
2023/01/12 09:18:34;;;;;;;21.33;5.53;;;10.90;99.90;;;;;;5112268;28;20042;-83
2023/01/12 09:21:07;;;;;;;21.40;4.97;;;10.90;99.90;;;;;;5130212;28;20039;-84
2023/01/12 09:23:33;;;;;;;18.65;4.65;;;11.00;99.90;;;;;;5111749;28;20088;-82
2023/01/12 09:26:07;;;;;;;19.77;4.50;;;11.10;99.90;;;;;;5128213;28;20039;-82
2023/01/12 09:28:33;;;;;;;19.92;4.97;;;11.20;99.90;;;;;;5129991;28;20039;-82
2023/01/12 09:31:04;;;;;;;19.38;5.07;;;11.30;99.90;;;;;;5111240;28;20076;-82
2023/01/12 09:33:30;;;;;;;18.35;4.75;;;11.40;99.90;;;;;;5091632;28;20044;-81
2023/01/12 09:36:00;;;;;;;17.80;4.30;;;11.40;99.90;;;;;;5108740;28;20364;-82
2023/01/12 09:38:26;;;;;;;21.73;5.40;;;11.40;99.90;;;;;;5091000;28;20096;-82
2023/01/12 09:40:52;;;;;;;16.80;3.90;;;11.40;99.90;;;;;;5092467;27;20126;-81
2023/01/12 09:48:50;;;;;;;20.10;4.68;;;11.40;99.90;;;;;;5073653;28;20040;-81
2023/01/12 09:51:27;;;;;;;18.75;4.28;;;11.50;99.90;;;;;;5047423;28;20086;-84
2023/01/12 09:53:53;;;;;;;19.48;5.00;;;11.50;99.90;;;;;;5050998;28;20051;-82
2023/01/12 09:56:30;;;;;;;15.88;4.60;;;11.50;99.90;;;;;;5041608;28;20037;-86
2023/01/12 09:59:48;;;;;;;19.45;5.13;;;11.50;99.90;;;;;;5050975;28;20036;-87
2023/01/12 10:02:14;;;;;;;17.60;4.13;;;11.60;99.90;;;;;;5020736;28;20075;-85
2023/01/12 10:04:40;;;;;;;17.10;4.10;;;11.60;99.90;;;;;;5047364;28;20079;-85
2023/01/12 10:07:13;;;;;;;16.73;4.80;;;11.70;99.90;;;;;;5048157;28;20044;-85
2023/01/12 10:09:40;;;;;;;19.70;4.35;;;11.60;99.90;;;;;;5070008;28;20044;-83
2023/01/12 10:12:31;;;;;;;17.08;4.68;;;11.60;99.90;;;;;;5069957;28;20083;-83
2023/01/12 10:15:17;;;;;;;17.77;4.55;;;11.60;99.90;;;;;;5064036;28;20114;-84
2023/01/12 10:17:51;;;;;;;16.08;4.25;;;11.60;99.90;;;;;;5070263;28;20540;-83
2023/01/12 10:20:22;;;;;;;17.20;4.13;;;11.80;99.90;;;;;;5052551;28;20048;-82
2023/01/12 10:22:49;;;;;;;17.52;3.92;;;11.80;99.90;;;;;;5050480;28;20037;-84
2023/01/12 10:25:37;;;;;;;17.45;4.18;;;11.90;99.90;;;;;;5088126;27;20050;-86
2023/01/12 10:28:28;;;;;;;15.85;4.20;;;11.90;99.90;;;;;;5129758;27;21439;-85
2023/01/12 10:30:55;;;;;;;17.25;4.13;;;12.00;99.90;;;;;;5134294;27;20031;-83
2023/01/12 10:33:29;;;;;;;15.60;3.75;;;12.00;99.90;;;;;;5114950;27;20039;-84
2023/01/12 10:36:08;;;;;;;17.58;4.40;;;11.90;99.90;;;;;;5113571;27;20083;-84
2023/01/12 10:39:33;;;;;;;16.10;3.70;;;11.90;99.90;;;;;;5131591;27;20060;-83
2023/01/12 10:45:19;;;;;;;15.60;4.13;;;12.00;99.90;;;;;;5033759;28;20124;-84
2023/01/12 10:47:46;;;;;;;13.50;3.78;;;11.90;99.90;;;;;;5015973;28;20060;-85
2023/01/12 10:50:19;;;;;;;15.85;4.10;;;11.90;99.90;;;;;;5033002;28;20478;-85
2023/01/12 10:52:46;;;;;;;16.52;4.13;;;11.90;99.90;;;;;;5065109;28;20059;-84
2023/01/12 10:55:20;;;;;;;14.18;3.58;;;11.90;99.90;;;;;;5032647;28;20045;-82
2023/01/12 10:57:49;;;;;;;17.30;4.05;;;11.90;99.90;;;;;;5048737;28;20210;-84
2023/01/12 11:00:22;;;;;;;16.00;4.07;;;11.90;99.90;;;;;;5047815;28;20080;-84
2023/01/12 11:02:48;;;;;;;15.48;4.45;;;11.90;99.90;;;;;;5032777;28;20402;-84
2023/01/12 11:05:37;;;;;;;19.00;4.75;;;11.80;99.90;;;;;;5029031;28;20053;-83
2023/01/12 11:08:22;;;;;;;14.23;4.20;;;11.90;99.90;;;;;;5000783;28;20045;-84
2023/01/12 11:10:48;;;;;;;17.60;4.78;;;11.80;99.90;;;;;;5012428;28;20046;-84
2023/01/12 11:13:35;;;;;;;17.92;5.18;;;11.80;99.90;;;;;;5117215;27;20074;-85
2023/01/12 11:16:21;;;;;;;17.23;4.57;;;11.80;99.90;;;;;;5094673;28;20075;-83
2023/01/12 11:19:10;;;;;;;16.77;4.13;;;11.80;99.90;;;;;;5111357;27;20046;-84
2023/01/12 11:21:43;;;;;;;20.80;4.70;;;11.80;99.90;;;;;;5114081;27;20398;-85
2023/01/12 11:24:15;;;;;;;17.35;4.55;;;11.90;99.90;;;;;;5128364;27;20070;-87
2023/01/12 11:26:49;;;;;;;14.75;4.10;;;11.90;99.90;;;;;;5132460;27;20050;-85
2023/01/12 11:29:44;;;;;;;20.50;4.40;;;11.90;99.90;;;;;;5097035;27;20180;-86
2023/01/12 11:32:24;;;;;;;16.80;4.55;;;11.90;99.90;;;;;;5113271;27;20042;-84
2023/01/12 11:34:58;;;;;;;16.83;4.50;;;11.90;99.90;;;;;;5110713;27;20047;-84
2023/01/12 11:37:23;;;;;;;19.38;4.25;;;11.90;99.90;;;;;;5094938;28;20819;-83
2023/01/12 11:40:03;;;;;;;18.42;4.53;;;11.90;99.90;;;;;;5112077;27;20078;-84
2023/01/12 11:45:18;;;;;;;16.80;4.30;;;12.00;99.90;;;;;;5127275;27;20157;-85
2023/01/12 11:47:57;;;;;;;16.13;4.78;;;12.10;99.90;;;;;;5111546;27;20479;-84
2023/01/12 11:50:27;;;;;;;16.73;4.55;;;12.10;99.90;;;;;;5112054;27;20047;-84
2023/01/12 11:52:54;;;;;;;15.73;3.85;;;12.00;99.90;;;;;;5092895;28;20043;-84
2023/01/12 11:55:31;;;;;;;17.17;4.00;;;12.10;99.90;;;;;;5093041;28;20044;-85
2023/01/12 11:58:16;;;;;;;15.85;4.78;;;12.10;99.90;;;;;;5126999;27;20394;-83
2023/01/12 12:00:53;;;;;;;14.15;4.15;;;12.10;99.90;;;;;;5111420;28;20082;-83
2023/01/12 12:03:47;;;;;;;17.88;4.22;;;12.10;99.90;;;;;;5092176;27;20086;-84
2023/01/12 12:06:26;;;;;;;17.80;4.97;;;12.00;99.90;;;;;;5092672;28;20046;-83
2023/01/12 12:09:08;;;;;;;17.83;4.18;;;12.10;99.90;;;;;;5093312;27;20035;-84
2023/01/12 12:11:41;;;;;;;15.52;3.83;;;12.10;99.90;;;;;;5092646;28;20052;-83
2023/01/12 12:14:40;;;;;;;18.52;5.13;;;12.10;99.90;;;;;;5101082;27;20344;-85
2023/01/12 12:17:06;;;;;;;16.75;4.50;;;12.00;99.90;;;;;;5112904;27;20333;-83
2023/01/12 12:19:59;;;;;;;14.25;3.88;;;12.10;99.90;;;;;;5128034;27;20050;-83
2023/01/12 12:22:33;;;;;;;14.93;3.75;;;12.10;99.90;;;;;;5128374;27;20050;-84
2023/01/12 12:25:25;;;;;;;17.27;4.35;;;12.10;99.90;;;;;;5119242;27;20074;-84
2023/01/12 12:28:30;;;;;;;15.65;4.60;;;12.00;99.90;;;;;;5110545;28;20044;-84
2023/01/12 12:31:28;;;;;;;15.20;4.00;;;12.00;99.90;;;;;;5111602;27;20399;-84
2023/01/12 12:34:12;;;;;;;17.25;4.32;;;11.90;99.90;;;;;;5106228;28;20100;-84
2023/01/12 12:37:25;;;;;;;18.95;4.72;;;11.80;99.90;;;;;;5110959;28;20067;-84
2023/01/12 12:40:25;;;;;;;18.55;4.90;;;11.70;99.90;;;;;;5119552;27;20043;-83
2023/01/12 12:46:08;;;;;;;20.35;5.55;;;11.60;99.90;;;;;;5091736;28;20079;-84
2023/01/12 12:48:34;;;;;;;19.88;5.22;;;11.60;99.90;;;;;;5096209;28;20043;-86
2023/01/12 12:51:07;;;;;;;19.90;4.97;;;11.70;99.90;;;;;;5111473;28;20126;-85
2023/01/12 12:53:45;;;;;;;18.60;5.43;;;11.70;99.90;;;;;;5112449;28;20110;-84
2023/01/12 12:56:14;;;;;;;23.20;5.38;;;11.70;99.90;;;;;;5131134;28;20039;-84
2023/01/12 12:58:48;;;;;;;17.58;4.95;;;11.70;99.90;;;;;;5130793;28;20071;-85
2023/01/12 13:01:19;;;;;;;18.25;4.68;;;11.80;99.90;;;;;;5146330;27;20391;-83
2023/01/12 13:03:46;;;;;;;18.10;4.90;;;11.80;99.90;;;;;;5128224;28;20043;-84
2023/01/12 13:06:30;;;;;;;16.15;4.13;;;11.80;99.90;;;;;;5111666;28;20031;-85
2023/01/12 13:08:57;;;;;;;16.08;4.43;;;11.90;99.90;;;;;;5130440;28;20387;-86
2023/01/12 13:11:45;;;;;;;19.45;4.70;;;12.00;99.90;;;;;;5112170;28;20039;-84
2023/01/12 13:14:38;;;;;;;18.23;4.35;;;12.00;99.90;;;;;;5112108;28;20055;-84
2023/01/12 13:17:22;;;;;;;18.15;4.70;;;12.10;99.90;;;;;;5106898;28;20063;-84
2023/01/12 13:19:48;;;;;;;17.27;4.45;;;12.10;99.90;;;;;;5138720;27;20051;-85
2023/01/12 13:22:35;;;;;;;19.83;4.45;;;12.20;99.90;;;;;;5095528;28;20134;-85
2023/01/12 13:25:23;;;;;;;17.50;4.88;;;12.20;99.90;;;;;;5133017;27;20067;-85
2023/01/12 13:27:51;;;;;;;16.75;3.97;;;12.20;99.90;;;;;;5135677;27;20447;-84
2023/01/12 13:30:47;;;;;;;17.67;4.45;;;12.20;99.90;;;;;;5115304;27;20566;-85
2023/01/12 13:33:15;;;;;;;18.10;4.65;;;12.10;99.90;;;;;;5150256;27;20133;-84
2023/01/12 13:35:45;;;;;;;20.38;4.70;;;12.10;99.90;;;;;;5098855;27;20050;-84
2023/01/12 13:38:14;;;;;;;19.63;4.45;;;12.10;99.90;;;;;;5114067;27;20049;-85
2023/01/12 13:40:40;;;;;;;16.98;4.35;;;12.00;99.90;;;;;;5120885;27;20040;-85
2023/01/12 13:43:21;;;;;;;14.63;4.25;;;12.00;99.90;;;;;;5078329;28;20045;-84
2023/01/12 13:45:56;;;;;;;15.93;4.88;;;12.00;99.90;;;;;;5094500;28;20430;-84
2023/01/12 13:48:23;;;;;;;14.45;3.45;;;12.00;99.90;;;;;;5095017;28;20039;-83
2023/01/12 13:51:03;;;;;;;13.55;3.35;;;11.90;99.90;;;;;;5099000;27;20387;-84
2023/01/12 13:53:30;;;;;;;16.45;3.58;;;11.80;99.90;;;;;;5115311;27;20039;-84